Time;durP1;ratioP1;P1;durP2;ratioP2;P2;SDS_P1;SDS_P2;PMS_P1;PMS_P2;Temp;Humidity;BMP_temperature;BMP_pressure;BME280_temperature;BME280_humidity;BME280_pressure;Samples;Min_cycle;Max_cycle;Signal;HPM_P1;HPM_P2
2021/04/28 00:00:08;;;;;;;3.97;3.40;;;3.30;99.90;;;;;;4953608;28;20529;-80
2021/04/28 00:02:33;;;;;;;3.95;3.25;;;3.30;99.90;;;;;;4953165;28;20410;-79
2021/04/28 00:04:59;;;;;;;3.78;3.38;;;3.30;99.90;;;;;;5003333;28;20402;-79
2021/04/28 00:07:25;;;;;;;3.85;3.15;;;3.10;99.90;;;;;;4967866;28;20797;-80
2021/04/28 00:09:51;;;;;;;4.85;3.08;;;3.00;99.90;;;;;;4989630;28;21053;-80
2021/04/28 00:12:17;;;;;;;4.53;3.05;;;3.00;99.90;;;;;;4970360;28;20501;-79
2021/04/28 00:14:42;;;;;;;4.50;3.20;;;2.90;99.90;;;;;;4989812;28;20394;-79
2021/04/28 00:17:08;;;;;;;5.30;3.60;;;3.00;99.90;;;;;;4998697;28;20483;-79
2021/04/28 00:19:34;;;;;;;7.55;3.10;;;2.90;99.90;;;;;;4983501;28;20401;-80
2021/04/28 00:22:00;;;;;;;6.60;2.90;;;2.90;99.90;;;;;;4975936;28;20425;-79
2021/04/28 00:24:26;;;;;;;4.93;3.30;;;2.80;99.90;;;;;;5024949;28;20393;-80
2021/04/28 00:26:51;;;;;;;3.80;3.30;;;2.70;99.90;;;;;;4991279;28;20757;-80
2021/04/28 00:29:17;;;;;;;5.78;3.47;;;2.70;99.90;;;;;;4981764;28;20397;-79
2021/04/28 00:31:43;;;;;;;3.17;2.88;;;2.70;99.90;;;;;;4976109;28;20891;-79
2021/04/28 00:34:08;;;;;;;3.47;3.08;;;2.60;99.90;;;;;;4969280;28;20443;-80
2021/04/28 00:36:34;;;;;;;5.60;3.50;;;2.60;99.90;;;;;;4966601;28;20450;-79
2021/04/28 00:39:00;;;;;;;5.07;3.53;;;2.60;99.90;;;;;;4943893;28;20792;-80
2021/04/28 00:41:25;;;;;;;3.67;3.28;;;2.60;99.90;;;;;;4998713;28;20397;-79
2021/04/28 00:43:51;;;;;;;3.87;2.97;;;2.50;99.90;;;;;;4992094;28;20413;-80
2021/04/28 00:46:17;;;;;;;4.00;3.50;;;2.50;99.90;;;;;;4990507;28;20406;-79
2021/04/28 00:48:43;;;;;;;4.65;3.40;;;2.50;99.90;;;;;;5010349;28;20894;-80
2021/04/28 00:51:08;;;;;;;4.68;3.28;;;2.50;99.90;;;;;;4994514;28;20921;-79
2021/04/28 00:53:34;;;;;;;3.97;3.37;;;2.50;99.90;;;;;;4989082;28;20431;-79
2021/04/28 00:56:00;;;;;;;4.17;3.37;;;2.50;99.90;;;;;;4974921;28;21011;-79
2021/04/28 00:58:26;;;;;;;4.07;3.47;;;2.50;99.90;;;;;;4972566;28;20386;-79
2021/04/28 01:00:53;;;;;;;3.90;3.50;;;2.40;99.90;;;;;;4990262;28;20451;-79
2021/04/28 01:03:21;;;;;;;3.92;3.40;;;2.50;99.90;;;;;;4992336;28;20404;-79
2021/04/28 01:05:47;;;;;;;3.83;3.08;;;2.40;99.90;;;;;;4988063;28;20406;-79
2021/04/28 01:08:15;;;;;;;4.38;3.45;;;2.40;99.90;;;;;;4988912;28;20449;-79
2021/04/28 01:10:40;;;;;;;6.13;3.60;;;2.40;99.90;;;;;;5006741;28;20428;-80
2021/04/28 01:13:08;;;;;;;4.85;3.90;;;2.40;99.90;;;;;;4974005;28;21006;-77
2021/04/28 01:15:34;;;;;;;4.10;3.70;;;2.30;99.90;;;;;;4981675;28;20394;-78
2021/04/28 01:18:08;;;;;;;4.05;3.55;;;2.30;99.90;;;;;;5004987;28;20401;-78
2021/04/28 01:20:36;;;;;;;3.30;3.00;;;2.30;99.90;;;;;;4989763;28;20461;-78
2021/04/28 01:23:04;;;;;;;5.07;3.15;;;2.20;99.90;;;;;;4982530;28;20397;-78
2021/04/28 01:25:30;;;;;;;5.53;3.60;;;2.10;99.90;;;;;;4990395;28;20400;-78
2021/04/28 01:28:20;;;;;;;4.07;3.67;;;2.10;99.90;;;;;;4996146;28;20927;-78
2021/04/28 01:31:05;;;;;;;5.03;3.70;;;2.10;99.90;;;;;;4986193;28;20915;-77
2021/04/28 01:33:36;;;;;;;5.67;4.30;;;2.00;99.90;;;;;;4998663;28;20398;-77
2021/04/28 01:36:05;;;;;;;5.78;4.35;;;2.00;99.90;;;;;;4989015;28;20408;-77
2021/04/28 01:38:34;;;;;;;5.85;4.72;;;2.00;99.90;;;;;;4946976;28;20427;-80
2021/04/28 01:41:00;;;;;;;4.93;4.30;;;2.00;99.90;;;;;;4983582;28;20438;-80
2021/04/28 01:43:28;;;;;;;4.47;3.83;;;2.00;99.90;;;;;;4990308;28;20487;-80
2021/04/28 01:45:54;;;;;;;5.00;4.30;;;2.00;99.90;;;;;;4988600;28;20488;-80
2021/04/28 01:48:20;;;;;;;7.13;4.50;;;2.00;99.90;;;;;;4989656;28;20431;-80
2021/04/28 01:50:47;;;;;;;4.38;3.97;;;1.90;99.90;;;;;;4976945;28;20416;-80
2021/04/28 01:53:16;;;;;;;3.83;3.47;;;1.90;99.90;;;;;;4989558;28;21045;-77
2021/04/28 01:55:43;;;;;;;4.28;3.45;;;1.80;99.90;;;;;;4989601;28;20952;-78
2021/04/28 01:58:27;;;;;;;4.43;3.70;;;1.80;99.90;;;;;;4986731;28;20451;-77
2021/04/28 02:00:54;;;;;;;6.15;4.10;;;1.80;99.90;;;;;;5004804;28;20436;-76
2021/04/28 02:03:21;;;;;;;5.30;3.72;;;1.80;99.90;;;;;;5006592;28;20798;-76
2021/04/28 02:05:47;;;;;;;5.35;3.92;;;1.80;99.90;;;;;;4976906;28;20423;-77
2021/04/28 02:08:13;;;;;;;5.28;4.03;;;1.80;99.90;;;;;;4986501;28;20402;-76
2021/04/28 02:10:40;;;;;;;4.90;4.13;;;1.80;99.90;;;;;;4993296;28;20483;-78
2021/04/28 02:13:13;;;;;;;4.45;4.03;;;1.80;99.90;;;;;;4990621;28;20409;-78
2021/04/28 02:15:39;;;;;;;6.13;4.57;;;1.90;99.90;;;;;;4988536;28;21041;-77
2021/04/28 02:18:05;;;;;;;7.85;4.70;;;1.80;99.90;;;;;;4989330;28;20471;-76
2021/04/28 02:20:36;;;;;;;5.50;4.32;;;1.80;99.90;;;;;;4972405;28;20427;-76
2021/04/28 02:23:22;;;;;;;6.63;4.32;;;1.80;99.90;;;;;;4977438;28;20826;-78
2021/04/28 02:25:48;;;;;;;5.28;4.28;;;1.80;99.90;;;;;;4981845;28;20508;-76
2021/04/28 02:28:14;;;;;;;6.55;4.32;;;1.70;99.90;;;;;;4988241;28;21038;-76
2021/04/28 02:30:49;;;;;;;5.38;3.88;;;1.70;99.90;;;;;;4984089;28;20858;-78
2021/04/28 02:33:17;;;;;;;5.68;4.40;;;1.60;99.90;;;;;;4967922;28;20461;-76
2021/04/28 02:36:01;;;;;;;5.40;3.80;;;1.60;99.90;;;;;;4985859;28;20402;-77
2021/04/28 02:38:56;;;;;;;4.80;4.30;;;1.60;99.90;;;;;;4992614;28;20404;-78
2021/04/28 02:41:31;;;;;;;5.22;4.47;;;1.60;99.90;;;;;;4959526;28;20404;-77
2021/04/28 02:43:56;;;;;;;6.20;4.23;;;1.60;99.90;;;;;;4985954;28;20965;-78
2021/04/28 02:46:26;;;;;;;4.97;4.30;;;1.60;99.90;;;;;;4964992;28;20456;-76
2021/04/28 02:48:55;;;;;;;7.35;4.65;;;1.60;99.90;;;;;;5005111;28;20425;-77
2021/04/28 02:51:34;;;;;;;7.00;4.85;;;1.50;99.90;;;;;;5010635;28;20812;-77
2021/04/28 02:54:01;;;;;;;8.68;4.60;;;1.50;99.90;;;;;;4993695;28;20402;-78
2021/04/28 02:56:29;;;;;;;5.90;4.30;;;1.50;99.90;;;;;;5001116;28;20487;-78
2021/04/28 02:58:55;;;;;;;5.55;4.63;;;1.50;99.90;;;;;;4966787;28;20496;-77
2021/04/28 03:01:22;;;;;;;5.63;5.00;;;1.50;99.90;;;;;;4988110;28;20476;-77
2021/04/28 03:03:50;;;;;;;6.60;4.63;;;1.50;99.90;;;;;;4975781;28;20442;-79
2021/04/28 03:06:24;;;;;;;5.93;4.45;;;1.50;99.90;;;;;;4970018;28;20409;-78
2021/04/28 03:08:56;;;;;;;8.35;4.32;;;1.50;99.90;;;;;;4978720;28;20406;-78
2021/04/28 03:11:22;;;;;;;6.20;4.68;;;1.50;99.90;;;;;;4973106;28;20925;-78
2021/04/28 03:13:49;;;;;;;5.80;4.60;;;1.50;99.90;;;;;;4973734;28;20424;-78
2021/04/28 03:16:14;;;;;;;5.68;4.38;;;1.50;99.90;;;;;;4990172;28;20432;-78
2021/04/28 03:18:41;;;;;;;5.57;4.53;;;1.60;99.90;;;;;;4949171;28;20392;-78
2021/04/28 03:21:07;;;;;;;4.87;4.10;;;1.60;99.90;;;;;;4958471;28;20472;-78
2021/04/28 03:23:35;;;;;;;7.93;5.20;;;1.60;99.90;;;;;;5006732;28;20520;-78
2021/04/28 03:26:01;;;;;;;7.17;4.53;;;1.60;99.90;;;;;;5006185;28;20807;-78
2021/04/28 03:28:27;;;;;;;6.18;4.90;;;1.60;99.90;;;;;;4962015;28;20907;-78
2021/04/28 03:30:53;;;;;;;6.47;4.75;;;1.60;99.90;;;;;;4992135;28;20750;-78
2021/04/28 03:33:19;;;;;;;6.03;4.53;;;1.60;99.90;;;;;;4988623;28;20394;-77
2021/04/28 03:36:00;;;;;;;6.30;4.60;;;1.50;99.90;;;;;;4989644;28;20525;-78
2021/04/28 03:38:44;;;;;;;6.25;4.57;;;1.50;99.90;;;;;;4982394;28;20456;-79
2021/04/28 03:41:12;;;;;;;7.28;5.30;;;1.50;99.90;;;;;;4973286;28;20398;-78
2021/04/28 03:43:38;;;;;;;7.57;4.80;;;1.50;99.90;;;;;;5002723;28;20429;-77
2021/04/28 03:46:04;;;;;;;5.10;4.20;;;1.50;99.90;;;;;;4997081;28;20486;-78
2021/04/28 03:48:42;;;;;;;6.43;4.40;;;1.60;99.90;;;;;;4991679;28;20386;-77
2021/04/28 03:51:08;;;;;;;8.23;4.82;;;1.60;99.90;;;;;;4976562;28;20389;-77
2021/04/28 03:53:54;;;;;;;6.50;4.55;;;1.70;99.90;;;;;;4981533;28;20471;-79
2021/04/28 03:56:20;;;;;;;9.07;6.13;;;1.60;99.90;;;;;;4996875;28;20385;-79
2021/04/28 03:58:46;;;;;;;7.10;4.75;;;1.80;99.90;;;;;;4954977;28;20433;-79
2021/04/28 04:01:11;;;;;;;6.40;4.97;;;1.70;99.90;;;;;;4988867;28;20737;-78
2021/04/28 04:03:37;;;;;;;6.07;4.73;;;1.70;99.90;;;;;;4992959;28;20531;-80
2021/04/28 04:06:21;;;;;;;5.30;4.78;;;1.70;99.90;;;;;;4988660;28;20453;-79
2021/04/28 04:09:10;;;;;;;5.90;4.90;;;1.80;99.90;;;;;;4981659;28;20399;-79
2021/04/28 04:11:38;;;;;;;6.80;4.75;;;1.80;99.90;;;;;;4974666;28;20484;-79
2021/04/28 04:14:05;;;;;;;6.45;5.10;;;1.80;99.90;;;;;;4970484;28;20888;-79
2021/04/28 04:16:31;;;;;;;8.95;5.43;;;1.80;99.90;;;;;;4970471;28;20394;-79
2021/04/28 04:18:58;;;;;;;5.00;4.32;;;1.80;99.90;;;;;;4986968;28;20446;-78
2021/04/28 04:21:25;;;;;;;7.43;5.03;;;1.90;99.90;;;;;;4973330;28;20436;-78
2021/04/28 04:24:16;;;;;;;5.68;4.93;;;1.80;99.90;;;;;;4966207;28;20400;-77
2021/04/28 04:26:43;;;;;;;8.07;4.57;;;2.00;99.90;;;;;;4988767;28;20420;-77
2021/04/28 04:29:20;;;;;;;6.68;5.00;;;1.80;99.90;;;;;;4971641;28;20902;-77
2021/04/28 04:31:54;;;;;;;8.35;5.15;;;1.80;99.90;;;;;;5001782;28;20413;-80
2021/04/28 04:34:38;;;;;;;7.30;5.03;;;1.90;99.90;;;;;;4993653;28;20912;-79
2021/04/28 04:37:39;;;;;;;8.07;4.75;;;1.90;99.90;;;;;;4982722;28;20408;-79
2021/04/28 04:40:17;;;;;;;5.78;5.00;;;1.90;99.90;;;;;;4986859;28;20458;-79
2021/04/28 04:43:09;;;;;;;6.55;5.28;;;1.90;99.90;;;;;;4972088;28;20431;-79
2021/04/28 04:45:58;;;;;;;7.03;5.50;;;2.00;99.90;;;;;;4996989;28;20406;-78
2021/04/28 04:48:23;;;;;;;5.77;4.67;;;2.10;99.90;;;;;;4975003;28;20462;-78
2021/04/28 04:50:49;;;;;;;7.75;5.50;;;2.10;99.90;;;;;;5007271;28;20425;-79
2021/04/28 04:53:15;;;;;;;7.68;5.10;;;2.00;99.90;;;;;;4973646;28;20420;-79
2021/04/28 04:55:40;;;;;;;7.95;5.13;;;2.00;99.90;;;;;;5025320;28;20451;-80
2021/04/28 04:58:06;;;;;;;6.40;5.37;;;2.00;99.90;;;;;;4990528;28;20405;-79
2021/04/28 05:00:32;;;;;;;6.30;4.88;;;2.00;99.90;;;;;;5006713;28;20451;-79
2021/04/28 05:02:58;;;;;;;8.07;5.15;;;2.10;99.90;;;;;;4991380;28;20403;-80
2021/04/28 05:05:24;;;;;;;7.07;5.47;;;2.20;99.90;;;;;;4969252;28;20408;-79
2021/04/28 05:07:49;;;;;;;7.65;5.40;;;2.20;99.90;;;;;;4977319;28;20686;-79
2021/04/28 05:10:15;;;;;;;6.33;5.07;;;2.30;99.90;;;;;;4969956;28;20401;-79
2021/04/28 05:12:46;;;;;;;8.80;5.50;;;2.30;99.90;;;;;;5007573;28;20424;-80
2021/04/28 05:15:13;;;;;;;7.53;5.30;;;2.40;99.90;;;;;;4973290;28;20515;-79
2021/04/28 05:17:39;;;;;;;7.00;5.20;;;2.50;99.90;;;;;;4984160;28;20480;-80
2021/04/28 05:20:06;;;;;;;9.63;5.13;;;2.70;99.90;;;;;;4975037;28;20381;-80
2021/04/28 05:22:31;;;;;;;8.07;5.88;;;2.70;99.90;;;;;;4960525;28;20397;-80
2021/04/28 05:25:17;;;;;;;7.10;5.57;;;2.90;99.90;;;;;;4993074;28;20910;-80
2021/04/28 05:27:43;;;;;;;8.57;6.03;;;3.00;99.90;;;;;;4974788;28;20454;-80
2021/04/28 05:30:09;;;;;;;9.32;5.90;;;3.10;99.90;;;;;;4965884;28;20436;-80
2021/04/28 05:32:35;;;;;;;8.13;5.60;;;3.20;99.90;;;;;;4990827;28;20422;-81
2021/04/28 05:35:01;;;;;;;7.32;6.05;;;3.30;99.90;;;;;;5003091;28;20404;-80
2021/04/28 05:37:27;;;;;;;6.20;5.50;;;3.40;99.90;;;;;;4991213;28;20397;-81
2021/04/28 05:39:52;;;;;;;8.55;6.63;;;3.50;99.90;;;;;;4967528;28;20651;-79
2021/04/28 05:42:18;;;;;;;8.02;5.80;;;3.50;99.90;;;;;;4985558;28;20432;-80
2021/04/28 05:44:45;;;;;;;9.00;6.35;;;3.70;99.90;;;;;;5006917;28;20391;-80
2021/04/28 05:47:11;;;;;;;9.35;6.10;;;3.60;99.90;;;;;;4989149;28;20412;-80
2021/04/28 05:49:36;;;;;;;6.82;6.13;;;3.80;99.90;;;;;;4972549;28;20751;-81
2021/04/28 05:52:02;;;;;;;10.98;6.65;;;3.80;99.90;;;;;;4983613;28;20412;-80
2021/04/28 05:54:28;;;;;;;7.18;5.85;;;3.90;99.90;;;;;;4984938;28;20403;-80
2021/04/28 05:56:56;;;;;;;9.07;6.55;;;3.90;99.90;;;;;;4997156;28;20527;-80
2021/04/28 05:59:23;;;;;;;7.10;6.30;;;4.00;99.90;;;;;;5020903;28;20425;-80
2021/04/28 06:02:14;;;;;;;11.27;6.47;;;4.00;99.90;;;;;;4988313;28;20395;-81
2021/04/28 06:08:19;;;;;;;9.02;6.53;;;4.00;99.90;;;;;;5155168;23;20416;-83
2021/04/28 06:10:45;;;;;;;11.00;6.72;;;4.50;99.90;;;;;;4951364;28;20779;-83
2021/04/28 06:14:10;;;;;;;10.65;6.88;;;4.40;99.90;;;;;;4906546;28;20428;-82
2021/04/28 06:17:05;;;;;;;15.20;7.50;;;4.70;99.90;;;;;;4953357;28;20398;-82
2021/04/28 06:19:31;;;;;;;8.48;6.80;;;4.80;99.90;;;;;;4946296;28;20404;-81
2021/04/28 06:21:57;;;;;;;6.97;5.60;;;4.90;99.90;;;;;;4950833;28;20392;-82
2021/04/28 06:24:23;;;;;;;8.52;6.10;;;5.10;99.90;;;;;;4944498;28;20474;-82
2021/04/28 06:26:48;;;;;;;8.10;6.00;;;5.20;99.90;;;;;;4912395;28;20395;-81
2021/04/28 06:29:14;;;;;;;8.57;6.30;;;5.50;99.90;;;;;;4921913;28;22340;-82
2021/04/28 06:31:40;;;;;;;10.45;7.55;;;5.40;99.90;;;;;;4940254;28;20443;-81
2021/04/28 06:49:33;;;;;;;9.13;6.75;;;6.20;99.90;;;;;;5939253;23;20394;-80
2021/04/28 06:51:59;;;;;;;10.37;7.50;;;6.30;99.90;;;;;;4945462;28;20521;-81
2021/04/28 06:54:25;;;;;;;9.38;6.78;;;6.50;99.90;;;;;;4917899;29;20419;-80
2021/04/28 06:59:54;;;;;;;13.63;7.03;;;6.80;99.90;;;;;;5088361;23;20925;-82
2021/04/28 07:02:19;;;;;;;9.30;7.03;;;6.90;99.90;;;;;;4897224;29;20425;-80
2021/04/28 07:04:45;;;;;;;11.15;6.40;;;7.10;99.90;;;;;;4886002;29;20786;-82
2021/04/28 07:07:11;;;;;;;8.63;6.53;;;7.40;99.90;;;;;;4887689;29;21296;-82
2021/04/28 07:09:50;;;;;;;11.53;7.20;;;7.60;99.90;;;;;;4888013;29;20404;-82
2021/04/28 07:12:16;;;;;;;9.45;6.28;;;8.00;99.90;;;;;;4910041;29;20913;-79
2021/04/28 07:14:59;;;;;;;10.60;7.07;;;8.20;99.90;;;;;;4894956;29;20468;-80
2021/04/28 07:17:28;;;;;;;11.20;6.88;;;8.30;99.90;;;;;;4926438;29;20464;-81
2021/04/28 07:19:54;;;;;;;6.95;5.93;;;8.50;99.90;;;;;;4892055;29;20523;-83
2021/04/28 07:22:20;;;;;;;8.05;6.25;;;8.60;99.90;;;;;;4921484;29;20412;-82
2021/04/28 07:25:00;;;;;;;9.38;6.85;;;8.70;99.90;;;;;;4906044;29;20425;-82
2021/04/28 07:27:32;;;;;;;7.70;5.73;;;8.90;99.90;;;;;;4885973;29;20935;-79
2021/04/28 07:29:58;;;;;;;9.27;6.53;;;9.20;99.90;;;;;;4889426;29;20404;-82
2021/04/28 07:32:24;;;;;;;9.93;6.67;;;9.40;99.90;;;;;;4884899;29;20471;-82
2021/04/28 07:34:50;;;;;;;11.43;6.32;;;9.40;99.90;;;;;;4906647;29;20898;-82
2021/04/28 07:37:18;;;;;;;8.80;6.90;;;9.60;99.90;;;;;;4895763;29;20405;-83
2021/04/28 08:35:03;;;;;;;10.23;5.85;;;11.20;97.80;;;;;;5908879;23;20401;-83
2021/04/28 09:17:52;;;;;;;7.88;5.53;;;14.30;86.70;;;;;;4906427;29;20510;-85
2021/04/28 09:20:44;;;;;;;11.85;5.45;;;14.80;83.80;;;;;;4905654;29;20445;-88
2021/04/28 09:23:38;;;;;;;6.53;5.50;;;15.10;84.70;;;;;;4916304;29;20462;-88
2021/04/28 09:26:23;;;;;;;6.50;5.13;;;15.20;80.60;;;;;;4910385;29;20407;-90
2021/04/28 09:28:52;;;;;;;6.35;5.38;;;15.30;80.20;;;;;;4917683;29;20423;-91
2021/04/28 09:31:19;;;;;;;5.22;4.72;;;15.50;80.60;;;;;;4917131;29;20399;-88
2021/04/28 09:33:45;;;;;;;6.67;5.10;;;15.70;78.50;;;;;;4913944;29;20392;-87
2021/04/28 09:36:14;;;;;;;7.72;4.97;;;15.80;76.30;;;;;;4890042;29;20404;-91
2021/04/28 09:39:07;;;;;;;8.23;5.37;;;16.00;74.90;;;;;;4862784;29;20395;-89
2021/04/28 09:41:53;;;;;;;7.15;4.70;;;16.30;72.50;;;;;;4898462;29;20494;-90
2021/04/28 10:14:41;;;;;;;6.78;4.75;;;18.30;61.00;;;;;;5475865;23;20421;-91
2021/04/28 10:21:07;;;;;;;6.68;4.38;;;19.10;59.90;;;;;;5087755;23;20401;-82
2021/04/28 10:23:33;;;;;;;4.90;4.40;;;19.50;59.40;;;;;;4893046;29;20469;-88
2021/04/28 10:25:59;;;;;;;5.45;4.70;;;19.60;59.70;;;;;;4915416;29;21093;-80
2021/04/28 10:28:25;;;;;;;5.97;4.90;;;19.80;58.50;;;;;;4894296;29;20416;-89
2021/04/28 10:30:50;;;;;;;4.95;4.43;;;19.90;57.00;;;;;;4900322;29;20426;-83
2021/04/28 10:38:45;;;;;;;6.25;4.90;;;19.90;55.40;;;;;;4936445;28;20453;-90
2021/04/28 10:41:35;;;;;;;5.38;4.80;;;20.40;57.50;;;;;;4957821;28;20482;-86
2021/04/28 10:44:01;;;;;;;6.10;5.05;;;20.70;55.00;;;;;;4958091;28;20405;-87
2021/04/28 10:46:27;;;;;;;5.65;4.85;;;20.80;56.60;;;;;;4924236;29;20416;-86
2021/04/28 10:48:53;;;;;;;6.77;5.20;;;20.80;54.20;;;;;;4923206;29;20440;-85
2021/04/28 10:51:34;;;;;;;5.75;5.15;;;20.70;54.30;;;;;;4944696;28;20416;-83
2021/04/28 10:54:19;;;;;;;7.60;5.00;;;20.60;53.70;;;;;;4935160;28;20452;-89
2021/04/28 10:56:57;;;;;;;7.30;5.25;;;20.70;54.00;;;;;;4925803;29;20434;-90
2021/04/28 10:59:32;;;;;;;7.97;4.70;;;21.20;54.00;;;;;;4913517;29;20408;-86
2021/04/28 11:06:34;;;;;;;7.45;5.68;;;21.80;52.70;;;;;;5231193;23;20536;-92
2021/04/28 11:09:00;;;;;;;6.95;4.82;;;22.10;51.20;;;;;;4944668;28;20409;-92
2021/04/28 11:14:09;;;;;;;7.82;4.97;;;21.60;52.00;;;;;;4980601;28;20392;-92
2021/04/28 11:16:54;;;;;;;10.20;4.80;;;21.70;51.30;;;;;;4950709;28;20393;-90
2021/04/28 11:19:29;;;;;;;6.97;4.82;;;22.00;51.30;;;;;;4959267;28;20391;-88
2021/04/28 11:22:21;;;;;;;7.97;4.57;;;22.30;52.30;;;;;;4940448;28;20390;-91
2021/04/28 11:25:00;;;;;;;6.20;4.85;;;22.70;51.40;;;;;;4971763;28;20392;-91
2021/04/28 11:27:42;;;;;;;5.63;4.88;;;23.00;51.90;;;;;;4947758;28;20474;-91
2021/04/28 11:30:33;;;;;;;4.50;3.80;;;22.60;50.40;;;;;;4946195;28;20447;-92
2021/04/28 11:33:18;;;;;;;4.15;3.75;;;22.00;50.00;;;;;;4971782;28;20425;-92
2021/04/28 11:35:54;;;;;;;5.00;4.50;;;21.90;48.90;;;;;;4946749;28;20711;-91
2021/04/28 11:38:23;;;;;;;6.80;4.50;;;21.90;50.60;;;;;;4953894;28;20420;-90
2021/04/28 11:41:03;;;;;;;4.93;3.90;;;22.70;52.10;;;;;;4938106;28;20392;-90
2021/04/28 11:43:30;;;;;;;5.37;4.00;;;23.40;52.20;;;;;;4956439;28;20412;-90
2021/04/28 11:46:03;;;;;;;5.60;3.42;;;23.40;49.30;;;;;;4935634;28;20398;-90
2021/04/28 11:48:30;;;;;;;5.28;3.35;;;23.30;50.60;;;;;;4954874;28;20423;-90
2021/04/28 11:50:57;;;;;;;4.40;3.35;;;23.60;48.20;;;;;;4940660;28;20453;-91
2021/04/28 11:53:24;;;;;;;4.57;3.63;;;23.70;49.00;;;;;;4941962;28;20428;-90
2021/04/28 11:55:49;;;;;;;5.07;3.83;;;24.20;50.80;;;;;;4940735;28;20421;-90
2021/04/28 11:58:22;;;;;;;5.93;3.73;;;24.10;48.80;;;;;;4935829;28;20387;-91
2021/04/28 12:00:49;;;;;;;4.53;3.50;;;24.20;47.70;;;;;;4937820;28;20421;-90
2021/04/28 12:03:14;;;;;;;5.45;3.60;;;23.90;48.30;;;;;;4940149;28;20401;-88
2021/04/28 12:05:40;;;;;;;4.50;3.90;;;23.80;47.80;;;;;;4944839;28;20421;-89
2021/04/28 12:08:06;;;;;;;4.10;3.70;;;23.40;45.80;;;;;;4943035;28;20444;-90
2021/04/28 12:10:32;;;;;;;4.63;3.37;;;23.00;48.40;;;;;;4942897;28;20387;-89
2021/04/28 12:12:57;;;;;;;3.65;3.35;;;22.90;48.30;;;;;;4943595;28;20397;-89
2021/04/28 12:15:23;;;;;;;4.37;3.10;;;23.30;48.90;;;;;;4932637;28;20425;-90
2021/04/28 12:17:49;;;;;;;4.40;3.67;;;24.00;48.60;;;;;;4943889;28;20430;-89
2021/04/28 12:20:17;;;;;;;3.97;3.58;;;24.50;45.00;;;;;;4955137;28;20438;-90
2021/04/28 12:22:43;;;;;;;3.55;3.00;;;24.30;45.80;;;;;;4938305;28;20415;-89
2021/04/28 12:25:10;;;;;;;3.57;3.27;;;25.10;48.40;;;;;;4938027;28;20410;-90
2021/04/28 12:27:39;;;;;;;3.97;3.50;;;25.60;45.40;;;;;;4943499;28;20393;-90
2021/04/28 12:30:07;;;;;;;4.88;3.10;;;25.70;45.20;;;;;;4920740;28;20403;-90
2021/04/28 12:32:34;;;;;;;5.13;3.40;;;25.70;46.50;;;;;;4927158;28;20422;-89
2021/04/28 12:35:20;;;;;;;4.40;3.50;;;26.20;44.80;;;;;;4940194;29;20405;-90
2021/04/28 12:38:05;;;;;;;3.53;3.22;;;26.40;44.80;;;;;;4946108;28;20402;-88
2021/04/28 12:40:47;;;;;;;3.17;2.85;;;26.90;43.90;;;;;;4954244;28;20415;-87
2021/04/28 12:43:44;;;;;;;3.95;3.17;;;27.10;42.10;;;;;;4934566;28;20398;-88
2021/04/28 12:46:15;;;;;;;6.00;3.35;;;26.80;43.00;;;;;;4930577;28;20401;-90
2021/04/28 12:48:54;;;;;;;3.53;2.85;;;25.90;42.00;;;;;;4943121;28;20409;-91
2021/04/28 12:51:20;;;;;;;3.33;3.03;;;25.80;43.10;;;;;;4927847;28;20397;-91
2021/04/28 12:53:45;;;;;;;3.55;3.20;;;26.00;42.40;;;;;;4938612;28;20402;-89
2021/04/28 12:56:11;;;;;;;3.40;3.10;;;25.70;42.50;;;;;;4925624;28;20413;-89
2021/04/28 12:58:46;;;;;;;2.87;2.57;;;25.60;43.30;;;;;;4954828;28;20406;-91
2021/04/28 13:01:23;;;;;;;3.30;3.00;;;25.20;42.70;;;;;;4941271;28;20465;-89
2021/04/28 13:03:49;;;;;;;3.35;3.05;;;24.90;43.30;;;;;;4927925;28;20398;-89
2021/04/28 13:06:24;;;;;;;4.20;3.20;;;25.30;44.90;;;;;;4940121;28;20417;-90
2021/04/28 13:08:50;;;;;;;4.95;3.13;;;25.80;43.50;;;;;;4941841;28;20428;-89
2021/04/28 13:11:23;;;;;;;3.38;3.10;;;25.70;42.90;;;;;;4955952;28;20394;-90
2021/04/28 13:13:57;;;;;;;5.63;2.88;;;25.30;42.90;;;;;;4925620;28;20374;-89
2021/04/28 13:16:27;;;;;;;3.53;2.88;;;25.70;43.80;;;;;;4923393;28;20402;-90
2021/04/28 13:18:53;;;;;;;6.88;3.28;;;26.10;42.80;;;;;;4956807;28;20487;-89
2021/04/28 13:21:32;;;;;;;3.13;2.93;;;25.50;42.60;;;;;;4965952;28;20386;-89
2021/04/28 13:24:02;;;;;;;4.18;3.17;;;24.70;42.70;;;;;;4935642;28;20409;-90
2021/04/28 13:26:27;;;;;;;3.60;2.88;;;24.80;43.30;;;;;;4957785;28;20565;-88
2021/04/28 13:28:56;;;;;;;3.40;3.10;;;25.30;42.00;;;;;;4937227;28;20423;-91
2021/04/28 13:31:23;;;;;;;4.82;2.90;;;25.40;42.90;;;;;;4942050;28;20398;-88
2021/04/28 13:33:50;;;;;;;3.00;2.80;;;25.30;43.20;;;;;;4956088;28;20403;-90
2021/04/28 13:36:30;;;;;;;6.18;3.25;;;24.50;41.50;;;;;;4940723;28;20389;-90
2021/04/28 13:38:58;;;;;;;3.08;2.83;;;23.90;44.30;;;;;;4954307;28;20421;-88
2021/04/28 13:41:24;;;;;;;3.45;3.15;;;24.20;44.20;;;;;;4934842;28;20419;-90
2021/04/28 13:43:50;;;;;;;4.20;2.70;;;23.80;44.90;;;;;;4964670;28;20473;-90
2021/04/28 13:46:16;;;;;;;6.45;2.72;;;23.80;45.50;;;;;;4945111;28;20405;-90
2021/04/28 13:48:41;;;;;;;3.85;2.75;;;24.70;45.60;;;;;;4925104;28;20418;-88
2021/04/28 13:51:09;;;;;;;2.88;2.58;;;25.20;44.20;;;;;;4940699;28;20667;-91
2021/04/28 13:53:34;;;;;;;3.03;2.55;;;25.70;43.40;;;;;;4937289;28;20439;-90
2021/04/28 13:56:03;;;;;;;4.13;3.20;;;26.40;44.20;;;;;;4954518;28;20409;-90
2021/04/28 13:58:30;;;;;;;3.28;2.97;;;26.80;42.00;;;;;;4957423;28;20390;-91
2021/04/28 14:01:02;;;;;;;3.25;2.78;;;27.10;42.20;;;;;;4986121;23;20414;-88
2021/04/28 14:03:46;;;;;;;3.08;2.78;;;27.40;41.40;;;;;;4979907;28;20492;-91
2021/04/28 14:09:22;;;;;;;3.53;2.70;;;27.90;40.70;;;;;;3804386;26;20420;-87
2021/04/28 14:12:30;;;;;;;2.92;2.63;;;27.40;39.50;;;;;;4973118;28;20444;-87
2021/04/28 14:15:21;;;;;;;5.85;3.00;;;27.50;40.40;;;;;;4911385;28;20402;-90
2021/04/28 14:18:05;;;;;;;2.90;2.53;;;27.50;40.00;;;;;;4973405;28;20394;-83
2021/04/28 14:26:23;;;;;;;2.78;2.47;;;28.70;39.50;;;;;;5336849;23;20420;-80
2021/04/28 14:28:54;;;;;;;2.92;2.53;;;28.70;38.70;;;;;;4934027;28;20393;-84
2021/04/28 14:37:46;;;;;;;3.38;2.70;;;27.90;39.00;;;;;;5088019;23;20452;-88
2021/04/28 14:40:24;;;;;;;2.40;2.17;;;27.60;40.90;;;;;;4923676;28;20425;-89
2021/04/28 14:43:01;;;;;;;3.00;2.70;;;27.30;40.60;;;;;;4961476;28;20401;-90
2021/04/28 14:45:36;;;;;;;2.92;2.63;;;27.60;39.30;;;;;;4954907;28;20407;-91
2021/04/28 14:48:09;;;;;;;2.83;2.58;;;27.70;40.40;;;;;;4975526;28;20491;-88
2021/04/28 14:50:43;;;;;;;3.20;2.58;;;27.20;39.20;;;;;;4941470;28;20382;-90
2021/04/28 14:53:20;;;;;;;2.67;2.30;;;26.90;39.60;;;;;;4930278;28;20446;-89
2021/04/28 15:59:32;;;;;;;2.80;2.60;;;23.90;42.60;;;;;;4871947;28;1840021;-91
2021/04/28 16:01:58;;;;;;;2.50;2.30;;;23.30;43.40;;;;;;4953242;28;20402;-91
2021/04/28 16:04:23;;;;;;;2.60;2.40;;;23.30;43.50;;;;;;4955403;28;20397;-88
2021/04/28 16:06:49;;;;;;;2.50;2.30;;;23.20;42.80;;;;;;4945195;29;20433;-89
2021/04/28 16:09:15;;;;;;;2.03;1.83;;;23.00;43.70;;;;;;4936545;28;20397;-91
2021/04/28 16:17:47;;;;;;;2.47;2.27;;;22.90;44.00;;;;;;4997586;28;20416;-91
2021/04/28 16:20:13;;;;;;;2.85;2.17;;;22.80;43.40;;;;;;4954370;28;20390;-91
2021/04/28 16:22:39;;;;;;;2.65;2.20;;;22.70;44.40;;;;;;4956920;28;20446;-91
2021/04/28 16:25:05;;;;;;;2.80;2.60;;;22.70;44.50;;;;;;4934543;28;20390;-92
2021/04/28 16:27:31;;;;;;;3.20;2.65;;;22.70;44.50;;;;;;4937611;28;20398;-92
2021/04/28 16:29:57;;;;;;;3.50;2.83;;;22.80;44.40;;;;;;4947480;28;20434;-91
2021/04/28 16:32:23;;;;;;;4.00;2.30;;;23.00;45.20;;;;;;4961531;28;20400;-90
2021/04/28 16:34:48;;;;;;;2.57;2.37;;;23.10;45.00;;;;;;4950000;28;20390;-92
2021/04/28 16:37:14;;;;;;;2.22;2.08;;;23.10;44.00;;;;;;4952824;28;20413;-91
2021/04/28 16:39:40;;;;;;;2.57;2.33;;;23.50;44.70;;;;;;4947128;28;20434;-91
2021/04/28 16:42:06;;;;;;;2.92;2.25;;;23.40;44.00;;;;;;4966796;28;20394;-92
2021/04/28 16:44:32;;;;;;;3.37;2.10;;;23.20;44.40;;;;;;4938551;28;20390;-92
2021/04/28 16:46:58;;;;;;;2.55;2.35;;;23.30;44.30;;;;;;4958280;28;20393;-92
2021/04/28 16:49:23;;;;;;;4.07;2.00;;;23.50;44.40;;;;;;4932494;28;20457;-91
2021/04/28 16:51:49;;;;;;;2.35;2.17;;;23.30;43.50;;;;;;4936492;28;20398;-91
2021/04/28 16:54:15;;;;;;;3.60;2.00;;;23.50;44.10;;;;;;4940631;28;20414;-91
2021/04/28 16:56:41;;;;;;;2.13;2.00;;;23.30;44.40;;;;;;4956403;28;20416;-91
2021/04/28 16:59:07;;;;;;;2.53;2.33;;;23.70;44.60;;;;;;4942139;28;20396;-90
2021/04/28 17:01:33;;;;;;;2.07;1.97;;;23.80;44.10;;;;;;4933594;28;20472;-93
2021/04/28 17:03:59;;;;;;;2.10;2.00;;;24.00;44.00;;;;;;4947745;28;20382;-91
2021/04/28 17:06:25;;;;;;;3.08;2.20;;;24.10;43.80;;;;;;4927927;28;20742;-91
2021/04/28 17:08:50;;;;;;;2.38;2.00;;;24.30;44.00;;;;;;4937089;28;20490;-91
2021/04/28 17:11:16;;;;;;;2.40;2.20;;;24.40;44.10;;;;;;4950709;28;20384;-93
2021/04/28 17:13:44;;;;;;;3.25;2.10;;;24.40;43.90;;;;;;4940595;28;20447;-91
2021/04/28 17:16:11;;;;;;;2.27;2.07;;;24.20;43.70;;;;;;4933767;28;20415;-92
2021/04/28 17:18:37;;;;;;;2.83;2.20;;;24.20;44.90;;;;;;4932814;28;20398;-91